ADDS - METARS form results

Aviation Digital Data Service (ADDS)

Output produced by METARs form (0649 UTC 21 June 2021)
found at http://aviationweather.gov/metar/data/
 
METAR text: KJOT 210635Z AUTO 00000KT 10SM -RA SCT050 SCT070 SCT090 21/20 A2951 RMK AO2 T02100198
Conditions at: KJOT (JOLIET , IL, US) observed 0635 UTC 21 June 2021
Temperature: 21.0°C (70°F)
Dewpoint: 19.8°C (68°F) [RH = 93%]
Pressure (altimeter): 29.51 inches Hg (999.4 mb)
Winds: calm
Visibility: 10 or more miles (16+ km)
Ceiling: at least 12,000 feet AGL
Clouds: scattered clouds at 5000 feet AGL
scattered clouds at 7000 feet AGL
scattered clouds at 9000 feet AGL
Weather: -RA  (light rain)

METAR text: KJOT 210615Z AUTO 21008KT 10SM RA SCT080 BKN110 21/20 A2953 RMK AO2 T02100200
Conditions at: KJOT (JOLIET , IL, US) observed 0615 UTC 21 June 2021
Temperature: 21.0°C (70°F)
Dewpoint: 20.0°C (68°F) [RH = 94%]
Pressure (altimeter): 29.53 inches Hg (1000.1 mb)
Winds: from the SSW (210 degrees) at 9 MPH (8 knots; 4.1 m/s)
Visibility: 10 or more miles (16+ km)
Ceiling: 11000 feet AGL
Clouds: scattered clouds at 8000 feet AGL
broken clouds at 11000 feet AGL
Weather: RA  (moderate rain)

METAR text: KJOT 210555Z AUTO 22007KT 10SM -DZ BKN080 BKN100 BKN120 20/20 A2955 RMK AO2 P0002 60103 T02010196 10275 20191 402910178
Conditions at: KJOT (JOLIET , IL, US) observed 0555 UTC 21 June 2021
Temperature: 20.1°C (68°F)
Dewpoint: 19.6°C (67°F) [RH = 97%]
Pressure (altimeter): 29.55 inches Hg (1000.8 mb)
Winds: from the SW (220 degrees) at 8 MPH (7 knots; 3.6 m/s)
Visibility: 10 or more miles (16+ km)
Ceiling: 8000 feet AGL
Clouds: broken clouds at 8000 feet AGL
broken clouds at 10000 feet AGL
broken clouds at 12000 feet AGL
Weather: -DZ  (light drizzle)